createdAt,value
2019-02-22T00:01:56.713Z,13.33
2019-02-22T00:04:27.380Z,13.31
2019-02-22T00:07:02.133Z,13.32
2019-02-22T00:09:35.572Z,13.32
2019-02-22T00:12:05.782Z,13.24
2019-02-22T00:14:43.569Z,13.15
2019-02-22T00:17:16.617Z,13.09
2019-02-22T00:19:48.546Z,13.06
2019-02-22T00:22:19.062Z,13.02
2019-02-22T00:24:56.960Z,13.07
2019-02-22T00:27:27.646Z,12.92
2019-02-22T00:29:59.426Z,12.88
2019-02-22T00:32:28.858Z,13.00
2019-02-22T00:35:12.172Z,12.95
2019-02-22T00:37:42.864Z,12.93
2019-02-22T00:40:13.908Z,12.97
2019-02-22T00:42:46.402Z,13.01
2019-02-22T00:45:17.102Z,13.12
2019-02-22T00:47:56.727Z,13.11
2019-02-22T00:50:29.253Z,13.12
2019-02-22T00:53:05.790Z,13.16
2019-02-22T00:55:38.136Z,13.23
2019-02-22T00:58:15.902Z,13.25
2019-02-22T01:00:56.290Z,13.06
2019-02-22T01:03:28.542Z,13.08
2019-02-22T01:05:57.999Z,12.94
2019-02-22T01:08:27.924Z,12.93
2019-02-22T01:11:00.195Z,12.88
2019-02-22T01:13:29.657Z,12.91
2019-02-22T01:15:59.701Z,12.94
2019-02-22T01:18:29.032Z,13.06
2019-02-22T01:20:57.934Z,13.13
2019-02-22T01:23:27.762Z,13.06
2019-02-22T01:26:00.670Z,13.13
2019-02-22T01:28:31.219Z,13.18
2019-02-22T01:31:02.219Z,13.22
2019-02-22T01:33:32.740Z,13.16
2019-02-22T01:36:04.686Z,13.10
2019-02-22T01:38:34.096Z,13.11
2019-02-22T01:41:05.725Z,13.11
2019-02-22T01:43:34.548Z,13.18
2019-02-22T01:46:21.558Z,13.27
2019-02-22T01:48:51.487Z,13.35
2019-02-22T01:51:22.388Z,13.27
2019-02-22T01:53:53.979Z,13.19
2019-02-22T01:56:25.309Z,13.29
2019-02-22T01:59:02.985Z,13.33
2019-02-22T02:01:32.318Z,13.42
2019-02-22T02:04:02.569Z,13.49
2019-02-22T02:06:33.751Z,13.38
2019-02-22T02:09:03.319Z,13.32
2019-02-22T02:11:32.490Z,13.35
2019-02-22T02:14:02.661Z,13.38
2019-02-22T02:16:33.182Z,13.30
2019-02-22T02:19:02.790Z,13.33
2019-02-22T02:21:33.642Z,13.21
2019-02-22T02:24:03.074Z,13.09
2019-02-22T02:26:32.944Z,13.10
2019-02-22T02:29:07.400Z,13.09
2019-02-22T02:31:41.304Z,13.03
2019-02-22T02:34:12.875Z,13.05
2019-02-22T02:39:29.658Z,13.11
2019-02-22T02:41:58.427Z,13.18
2019-02-22T02:44:28.221Z,13.18
2019-02-22T02:46:59.219Z,13.24
2019-02-22T02:49:28.359Z,13.21
2019-02-22T02:52:03.608Z,13.30
2019-02-22T02:54:45.788Z,13.37
2019-02-22T02:57:17.157Z,13.19
2019-02-22T02:59:55.590Z,13.09
2019-02-22T03:02:32.197Z,13.12
2019-02-22T03:05:04.439Z,13.20
2019-02-22T03:07:43.821Z,13.20
2019-02-22T03:10:13.501Z,13.27
2019-02-22T03:12:44.332Z,13.20
2019-02-22T03:15:17.719Z,13.05
2019-02-22T03:17:46.307Z,13.07
2019-02-22T03:20:15.626Z,13.06
2019-02-22T03:22:45.613Z,13.13
2019-02-22T03:25:15.540Z,13.27
2019-02-22T03:27:46.281Z,13.17
2019-02-22T03:30:19.448Z,13.25
2019-02-22T03:32:49.472Z,13.28
2019-02-22T03:35:22.979Z,13.35
2019-02-22T03:37:52.893Z,13.28
2019-02-22T03:40:23.820Z,13.23
2019-02-22T03:42:58.757Z,13.21
2019-02-22T03:45:27.871Z,13.20
2019-02-22T03:47:56.537Z,13.22
2019-02-22T03:50:26.742Z,13.17
2019-02-22T03:53:14.311Z,13.17
2019-02-22T03:55:43.064Z,13.15
2019-02-22T03:58:12.418Z,13.27
2019-02-22T04:00:41.810Z,13.35
2019-02-22T04:03:12.863Z,13.40
2019-02-22T04:05:42.893Z,13.25
2019-02-22T04:08:12.401Z,13.17
2019-02-22T04:10:45.851Z,13.20
2019-02-22T04:13:15.002Z,13.28
2019-02-22T04:15:45.952Z,13.43
2019-02-22T04:18:15.081Z,13.36
2019-02-22T04:20:46.206Z,13.31
2019-02-22T04:23:19.685Z,13.39
2019-02-22T04:25:56.551Z,13.16
2019-02-22T04:28:26.789Z,13.16
2019-02-22T04:30:55.929Z,13.23
2019-02-22T04:33:26.222Z,13.19
2019-02-22T04:35:59.868Z,13.27
2019-02-22T04:38:29.359Z,13.23
2019-02-22T04:41:06.146Z,13.28
2019-02-22T04:43:36.232Z,13.19
2019-02-22T04:46:05.295Z,13.25
2019-02-22T04:48:37.945Z,13.21
2019-02-22T04:51:09.329Z,13.23
2019-02-22T04:53:40.281Z,13.09
2019-02-22T04:56:09.443Z,13.17
2019-02-22T04:58:41.841Z,13.12
2019-02-22T05:01:12.387Z,13.12
2019-02-22T05:06:33.295Z,13.09
2019-02-22T05:09:04.207Z,13.17
2019-02-22T05:11:33.622Z,13.23
2019-02-22T05:14:04.847Z,13.23
2019-02-22T05:16:33.589Z,13.09
2019-02-22T05:19:02.779Z,13.13
2019-02-22T05:21:33.412Z,13.29
2019-02-22T05:24:06.770Z,13.30
2019-02-22T05:26:39.923Z,13.26
2019-02-22T05:29:11.322Z,13.28
2019-02-22T05:31:46.112Z,13.30
2019-02-22T05:34:19.602Z,13.22
2019-02-22T05:36:48.522Z,13.11
2019-02-22T05:39:20.562Z,13.31
2019-02-22T05:41:52.781Z,13.28
2019-02-22T05:44:22.694Z,13.34
2019-02-22T05:47:02.670Z,13.40
2019-02-22T05:49:33.798Z,13.30
2019-02-22T05:52:10.445Z,13.26
2019-02-22T05:54:47.909Z,13.44
2019-02-22T05:57:18.020Z,13.28
2019-02-22T05:59:58.348Z,13.28
2019-02-22T06:02:28.963Z,13.35
2019-02-22T06:05:12.165Z,13.42
2019-02-22T06:08:08.840Z,13.35
2019-02-22T06:12:55.877Z,13.40
2019-02-22T06:15:42.280Z,13.44
2019-02-22T06:21:40.880Z,13.64
2019-02-22T06:24:03.719Z,13.75
2019-02-22T06:26:38.238Z,13.70
2019-02-22T06:29:09.940Z,13.50
2019-02-22T06:44:24.240Z,13.37
2019-02-22T06:51:19.326Z,13.28
2019-02-22T07:02:31.287Z,13.36
2019-02-22T07:06:02.065Z,13.49
2019-02-22T07:12:05.311Z,13.43
2019-02-22T07:20:40.749Z,13.66
2019-02-22T07:32:39.125Z,13.28
2019-02-22T07:35:14.404Z,13.52
2019-02-22T07:37:59.523Z,13.41
2019-02-22T07:43:28.924Z,13.71
2019-02-22T08:04:13.303Z,13.74
2019-02-22T08:06:55.921Z,13.93
2019-02-22T08:09:28.756Z,14.05
2019-02-22T08:11:59.183Z,13.93
2019-02-22T08:15:13.809Z,14.27
2019-02-22T08:24:21.741Z,14.27
2019-02-22T08:27:11.123Z,14.23
2019-02-22T08:30:13.452Z,14.12
2019-02-22T08:35:58.006Z,13.89
2019-02-22T08:41:49.428Z,13.97
2019-02-22T08:45:03.176Z,13.92
2019-02-22T08:48:19.770Z,14.02
2019-02-22T08:50:43.309Z,14.07
2019-02-22T08:53:37.135Z,14.01
2019-02-22T08:59:19.299Z,14.09
2019-02-22T09:06:04.711Z,14.22
2019-02-22T09:12:26.446Z,14.30
2019-02-22T09:14:58.782Z,14.22
2019-02-22T09:21:30.765Z,14.31
2019-02-22T09:24:15.798Z,14.33
2019-02-22T09:36:20.852Z,14.99
2019-02-22T09:38:55.368Z,15.30
2019-02-22T09:41:38.486Z,15.42
2019-02-22T09:47:35.523Z,15.57
2019-02-22T09:56:30.948Z,16.08
2019-02-22T09:59:15.952Z,15.96
2019-02-22T10:02:01.338Z,15.84
2019-02-22T10:04:55.120Z,16.12
2019-02-22T10:10:36.507Z,16.29
2019-02-22T10:19:30.712Z,16.02
2019-02-22T10:31:18.181Z,16.82
2019-02-22T10:42:53.230Z,17.50
2019-02-22T10:45:46.341Z,17.76
2019-02-22T10:51:53.035Z,17.77
2019-02-22T10:55:06.391Z,17.89
2019-02-22T11:00:34.946Z,17.58
2019-02-22T11:03:15.901Z,18.36
2019-02-22T11:05:51.608Z,17.89
2019-02-22T11:08:37.585Z,17.62
2019-02-22T11:11:31.329Z,19.47
2019-02-22T11:14:01.669Z,18.81
2019-02-22T11:16:42.281Z,18.31
2019-02-22T11:19:17.898Z,19.25
2019-02-22T11:22:37.260Z,21.04
2019-02-22T11:27:59.961Z,21.35
2019-02-22T12:52:55.767Z,20.09
2019-02-22T12:58:13.652Z,20.28
2019-02-22T13:01:13.085Z,20.21
2019-02-22T13:06:50.170Z,21.00
2019-02-22T13:09:45.549Z,21.39
2019-02-22T13:12:46.162Z,21.24
2019-02-22T13:18:16.797Z,20.46
2019-02-22T13:34:03.444Z,19.56
2019-02-22T13:45:26.908Z,19.31
2019-02-22T13:51:41.646Z,19.00
2019-02-22T13:54:23.850Z,18.74
2019-02-22T14:00:31.493Z,18.49
2019-02-22T14:03:01.534Z,18.42
2019-02-22T14:05:31.056Z,18.37
2019-02-22T14:08:00.872Z,18.41
2019-02-22T14:10:32.130Z,18.64
2019-02-22T14:13:05.438Z,18.46
2019-02-22T14:16:12.707Z,18.69
2019-02-22T14:21:42.259Z,18.33
2019-02-22T14:24:19.094Z,18.21
2019-02-22T14:26:48.110Z,18.11
2019-02-22T14:35:36.196Z,17.98
2019-02-22T14:38:17.817Z,17.79
2019-02-22T14:41:06.808Z,17.47
2019-02-22T14:46:42.968Z,17.15
2019-02-22T14:49:18.136Z,17.30
2019-02-22T14:52:01.257Z,17.26
2019-02-22T14:55:17.699Z,17.14
2019-02-22T15:13:33.579Z,17.70
2019-02-22T15:16:38.868Z,17.85
2019-02-22T15:22:26.763Z,17.90
2019-02-22T15:25:04.649Z,17.88
2019-02-22T15:27:45.260Z,17.74
2019-02-22T15:30:32.697Z,17.51
2019-02-22T15:33:21.635Z,17.45
2019-02-22T15:36:16.327Z,17.20
2019-02-22T15:41:42.762Z,17.02
2019-02-22T15:53:46.585Z,16.70
2019-02-22T15:59:25.905Z,16.69
2019-02-22T16:02:36.021Z,16.70
2019-02-22T16:13:55.463Z,17.10
2019-02-22T16:16:25.434Z,17.14
2019-02-22T16:19:15.350Z,17.19
2019-02-22T16:21:46.664Z,17.35
2019-02-22T16:24:27.695Z,17.13
2019-02-22T16:27:05.170Z,16.89
2019-02-22T16:29:34.030Z,16.75
2019-02-22T16:32:12.855Z,16.82
2019-02-22T16:40:54.396Z,16.50
2019-02-22T16:59:00.436Z,16.37
2019-02-22T17:04:55.076Z,16.24
2019-02-22T17:07:26.074Z,16.20
2019-02-22T20:14:10.131Z,13.60
2019-02-22T20:17:00.696Z,13.62
2019-02-22T20:19:35.108Z,13.61
2019-02-22T20:22:40.639Z,13.41
2019-02-22T20:28:31.197Z,13.15
2019-02-22T20:31:20.277Z,13.09
2019-02-22T20:34:40.540Z,13.12
2019-02-22T20:40:44.435Z,13.09
2019-02-22T20:50:50.515Z,13.03
2019-02-22T21:02:55.975Z,13.14
2019-02-22T21:05:52.164Z,13.06
2019-02-22T21:08:32.022Z,13.18
2019-02-22T21:11:12.255Z,13.10
2019-02-22T21:19:07.483Z,13.04
2019-02-22T21:28:22.660Z,12.94
2019-02-22T21:36:46.339Z,12.77
2019-02-22T21:39:27.171Z,12.73
2019-02-22T21:49:04.329Z,12.66
2019-02-22T21:51:43.430Z,12.52
2019-02-22T21:54:15.324Z,12.59
2019-02-22T21:56:44.637Z,12.61
2019-02-22T21:59:17.781Z,12.57
2019-02-22T22:11:05.459Z,12.47
2019-02-22T22:13:38.542Z,12.45
2019-02-22T22:20:16.292Z,12.36
2019-02-22T22:22:29.952Z,12.38
2019-02-22T22:28:00.074Z,12.25
2019-02-22T22:33:34.279Z,12.12
2019-02-22T22:36:30.555Z,12.04
2019-02-22T22:42:17.132Z,11.95
2019-02-22T22:44:46.426Z,11.99
2019-02-22T22:47:14.870Z,11.93
2019-02-22T22:49:44.803Z,11.89
2019-02-22T22:52:13.166Z,11.85
2019-02-22T22:54:46.831Z,11.86
2019-02-22T22:57:15.074Z,11.91
2019-02-22T22:59:44.382Z,11.91
2019-02-22T23:02:13.876Z,11.94
2019-02-22T23:04:43.217Z,11.83
2019-02-22T23:07:20.759Z,11.75
2019-02-22T23:09:54.041Z,11.63
2019-02-22T23:12:22.340Z,11.60
2019-02-22T23:14:53.960Z,11.60
2019-02-22T23:17:22.378Z,11.70
2019-02-22T23:19:50.777Z,11.77
2019-02-22T23:22:19.197Z,11.67
2019-02-22T23:24:50.820Z,11.67
2019-02-22T23:27:19.147Z,11.69
2019-02-22T23:29:47.547Z,11.66
2019-02-22T23:32:16.033Z,11.62
2019-02-22T23:34:47.475Z,11.64
2019-02-22T23:37:20.241Z,11.61
2019-02-22T23:39:48.769Z,11.69
2019-02-22T23:42:19.999Z,11.66
2019-02-22T23:44:49.947Z,11.61
2019-02-22T23:47:18.319Z,11.61
2019-02-22T23:49:54.120Z,11.62
2019-02-22T23:52:25.255Z,11.60
2019-02-22T23:54:53.674Z,11.61
2019-02-22T23:57:22.180Z,11.61
